Seabourn Legend — C6FR6 — position and weather

sailwx.info

Track history (hours):
 
Tides and Currents Weather Stations Pressure Air Temp Water Temp Dewpoint Dewpoint Depression Visibility Wind Speed Wind Dir Waves Ship Positions

Seabourn Legend

Operator: Cunard Seabourn

Last reported at 2019-Mar-24 22:11 UTC. Time now 2019-Mar-26 00:37 UTC.
Position N 33°37' E 135°13'.

Length 135 m; draft 5.7 m.

Type: Passenger vessel. MMSI: 311085000.

Date/timePositionNaut miles runAvg speedWind from/ knotsBaromVisibWave heightAir tempDewpointWater temp
2019-Mar-24 22:11N 33°37' E 135°13'610.3
2019-Mar-24 21:36N 33°41' E 135°07'210.4
2019-Mar-24 21:25N 33°42' E 135°06'410.4
2019-Mar-24 21:00N 33°45' E 135°02'510.4
2019-Mar-24 20:31N 33°49' E 134°58'510.3
2019-Mar-24 20:00N 33°54' E 134°57'510.8
2019-Mar-24 19:30N 33°60' E 134°57'510.8
2019-Mar-24 19:01N 34°05' E 134°57'510.8
2019-Mar-24 18:31N 34°10' E 134°58'612.5
2019-Mar-24 18:01N 34°17' E 134°58'713.4
2019-Mar-24 17:30N 34°23' E 135°01'714.0
2019-Mar-24 17:00N 34°28' E 135°08'713.5
2019-Mar-24 16:30N 34°32' E 135°13'713.6
2019-Mar-24 16:00N 34°36' E 135°20'510.6
2019-Mar-24 15:30N 34°39' E 135°26'0 0.5
2019-Mar-24 15:00N 34°39' E 135°26'0 0.0
2019-Mar-24 14:30N 34°39' E 135°26'0 0.0
2019-Mar-24 14:00N 34°39' E 135°26'0 0.0
2019-Mar-24 13:24N 34°39' E 135°26'0 0.0
2019-Mar-24 13:00N 34°39' E 135°26'0 0.0
2019-Mar-24 12:30N 34°39' E 135°26'0 0.0
2019-Mar-24 11:54N 34°39' E 135°26'0 0.0
2019-Mar-24 11:24N 34°39' E 135°26'0 0.0
2019-Mar-24 11:00N 34°39' E 135°26'0 0.0
2019-Mar-24 10:30N 34°39' E 135°26'0 0.0
2019-Mar-24 10:00N 34°39' E 135°26'0 0.0
2019-Mar-24 09:18N 34°39' E 135°26'0 0.0
2019-Mar-24 08:54N 34°39' E 135°26'0 0.0
2019-Mar-24 08:30N 34°39' E 135°26'0 0.0
2019-Mar-24 08:00N 34°39' E 135°26'0 0.0
2019-Mar-24 07:30N 34°39' E 135°26'0 0.0
2019-Mar-24 07:00N 34°39' E 135°26'0 0.0
2019-Mar-24 06:06N 34°39' E 135°26'0 0.0
2019-Mar-24 05:30N 34°39' E 135°26'0 0.0
2019-Mar-24 05:00N 34°39' E 135°26'0 0.0
2019-Mar-24 04:12N 34°39' E 135°26'0 0.0
2019-Mar-24 03:54N 34°39' E 135°26'0 0.0
2019-Mar-24 03:30N 34°39' E 135°26'0 0.0
2019-Mar-24 02:42N 34°39' E 135°26'0 0.0
2019-Mar-24 02:30N 34°39' E 135°26'0 0.0
2019-Mar-24 02:00N 34°39' E 135°26'0 0.0
2019-Mar-24 01:30N 34°39' E 135°26'0 0.0
2019-Mar-24 01:00N 34°39' E 135°26'0 0.0
2019-Mar-24 00:30N 34°39' E 135°26'0 0.0
2019-Mar-24 00:00N 34°39' E 135°26'0 0.0
2019-Mar-23 23:24N 34°39' E 135°26'0 0.0
2019-Mar-23 23:00N 34°39' E 135°26'0 0.0
2019-Mar-23 22:28N 34°39' E 135°26'0 0.1
2019-Mar-23 22:00N 34°39' E 135°26'3 6.0
2019-Mar-23 21:30N 34°38' E 135°23'611.7
2019-Mar-23 21:00N 34°36' E 135°16'511.0
2019-Mar-23 20:30N 34°35' E 135°09'4 8.4
2019-Mar-23 20:00N 34°35' E 135°04'510.0
2019-Mar-23 19:29N 34°37' E 134°58'610.8
2019-Mar-23 18:58N 34°34' E 134°52'5 9.6
2019-Mar-23 18:30N 34°33' E 134°47'4 8.8
2019-Mar-23 18:00N 34°31' E 134°42'4 8.8
2019-Mar-23 17:30N 34°29' E 134°37'4 8.5
2019-Mar-23 17:00N 34°28' E 134°33'4 8.4
2019-Mar-23 16:30N 34°26' E 134°28'7 8.7
2019-Mar-23 15:42N 34°24' E 134°20'  
2019-Mar-21 05:02N 35°06' E 129°05'0 6.3
2019-Mar-21 05:00N 35°06' E 129°05'2 3.4
2019-Mar-21 04:29N 35°07' E 129°03'0 0.0
2019-Mar-21 03:56N 35°07' E 129°03'0 0.0
2019-Mar-21 03:29N 35°07' E 129°03'0 0.0
2019-Mar-21 02:59N 35°07' E 129°03'0 0.0
2019-Mar-21 02:29N 35°07' E 129°03'0 0.0
2019-Mar-21 01:59N 35°07' E 129°03'0 0.0
2019-Mar-21 01:29N 35°07' E 129°03'0 0.0
2019-Mar-21 00:59N 35°07' E 129°03'0 0.0
2019-Mar-21 00:29N 35°07' E 129°03'0 0.0
2019-Mar-20 23:59N 35°07' E 129°03'0 0.0
2019-Mar-20 23:29N 35°07' E 129°03'0 0.0
2019-Mar-20 22:59N 35°07' E 129°03'0 0.0
2019-Mar-20 22:29N 35°07' E 129°03'0 0.0
2019-Mar-20 21:59N 35°07' E 129°03'0 0.0
2019-Mar-20 21:29N 35°07' E 129°03'0 0.0
2019-Mar-20 20:59N 35°07' E 129°03'0 0.0
2019-Mar-20 20:29N 35°07' E 129°03'0 0.0
2019-Mar-20 19:59N 35°07' E 129°03'0 0.0
2019-Mar-20 19:29N 35°07' E 129°03'0 0.0
2019-Mar-20 18:59N 35°07' E 129°03'0 0.0
2019-Mar-20 18:29N 35°07' E 129°03'0 0.0
2019-Mar-20 17:59N 35°07' E 129°03'0 0.0
2019-Mar-20 17:29N 35°07' E 129°03'0 0.0
2019-Mar-20 16:59N 35°07' E 129°03'0 0.0
2019-Mar-20 16:29N 35°07' E 129°03'0 0.0
2019-Mar-20 15:59N 35°07' E 129°03'0 0.0
2019-Mar-20 15:29N 35°07' E 129°03'0 0.0
2019-Mar-20 14:59N 35°07' E 129°03'0 0.0
2019-Mar-20 14:29N 35°07' E 129°03'0 0.0
2019-Mar-20 13:59N 35°07' E 129°03'0 0.0
2019-Mar-20 13:29N 35°07' E 129°03'0 0.0
2019-Mar-20 12:59N 35°07' E 129°03'0 0.0
2019-Mar-20 12:29N 35°07' E 129°03'0 0.0
2019-Mar-20 11:59N 35°07' E 129°03'0 0.0
2019-Mar-20 11:29N 35°07' E 129°03'0 0.0
2019-Mar-20 10:59N 35°07' E 129°03'0 0.0
2019-Mar-20 10:29N 35°07' E 129°03'0 0.0
2019-Mar-20 09:59N 35°07' E 129°03'0 0.0
2019-Mar-20 09:29N 35°07' E 129°03'0 0.0
2019-Mar-20 08:59N 35°07' E 129°03'0 0.0
2019-Mar-20 08:29N 35°07' E 129°03'0 0.0
2019-Mar-20 07:59N 35°07' E 129°03'0 0.0
2019-Mar-20 07:29N 35°07' E 129°03'0 0.0
2019-Mar-20 06:59N 35°07' E 129°03'0 0.0
2019-Mar-20 06:29N 35°07' E 129°03'0 0.0
2019-Mar-20 05:59N 35°07' E 129°03'0 0.0
2019-Mar-20 05:29N 35°07' E 129°03'0 0.0
2019-Mar-20 04:59N 35°07' E 129°03'0 0.0
2019-Mar-20 04:29N 35°07' E 129°03'0 0.0
2019-Mar-20 03:59N 35°07' E 129°03'0 0.0
2019-Mar-20 03:29N 35°07' E 129°03'0 0.0
2019-Mar-20 02:59N 35°07' E 129°03'0 0.0
2019-Mar-20 02:29N 35°07' E 129°03'0 0.0
2019-Mar-20 01:59N 35°07' E 129°03'0 0.0
2019-Mar-20 01:26N 35°07' E 129°03'0 0.0
2019-Mar-20 00:59N 35°07' E 129°03'0 0.0
2019-Mar-20 00:29N 35°07' E 129°03'0 0.0
2019-Mar-19 23:59N 35°07' E 129°03'0 0.0
2019-Mar-19 23:29N 35°07' E 129°03'0 0.0
2019-Mar-19 22:59N 35°07' E 129°03'0 0.0
2019-Mar-19 22:28N 35°07' E 129°03'0 0.0
2019-Mar-19 21:59N 35°07' E 129°03'0 0.0
2019-Mar-19 21:29N 35°07' E 129°03'0 0.0
2019-Mar-19 20:59N 35°07' E 129°03'0 0.0
2019-Mar-19 20:29N 35°07' E 129°03'0 0.0
2019-Mar-19 20:00N 35°07' E 129°03'1 1.4
2019-Mar-19 19:30N 35°06' E 129°04'  
Track history (hours):
 
Tides and Currents Weather Stations Pressure Air Temp Water Temp Dewpoint Dewpoint Depression Visibility Wind Speed Wind Dir Waves Ship Positions

Seabourn Legend

Operator: Cunard Seabourn

Last reported at 2019-Mar-24 22:11 UTC. Time now 2019-Mar-26 00:37 UTC.
Position N 33°37' E 135°13'.

Length 135 m; draft 5.7 m.

Type: Passenger vessel. MMSI: 311085000.

Date/timePositionNaut miles runAvg speedWind from/ knotsBaromVisibWave heightAir tempDewpointWater temp
2019-Mar-24 22:11N 33°37' E 135°13'610.3
2019-Mar-24 21:36N 33°41' E 135°07'210.4
2019-Mar-24 21:25N 33°42' E 135°06'410.4
2019-Mar-24 21:00N 33°45' E 135°02'510.4
2019-Mar-24 20:31N 33°49' E 134°58'510.3
2019-Mar-24 20:00N 33°54' E 134°57'510.8
2019-Mar-24 19:30N 33°60' E 134°57'510.8
2019-Mar-24 19:01N 34°05' E 134°57'510.8
2019-Mar-24 18:31N 34°10' E 134°58'612.5
2019-Mar-24 18:01N 34°17' E 134°58'713.4
2019-Mar-24 17:30N 34°23' E 135°01'714.0
2019-Mar-24 17:00N 34°28' E 135°08'713.5
2019-Mar-24 16:30N 34°32' E 135°13'713.6
2019-Mar-24 16:00N 34°36' E 135°20'510.6
2019-Mar-24 15:30N 34°39' E 135°26'0 0.5
2019-Mar-24 15:00N 34°39' E 135°26'0 0.0
2019-Mar-24 14:30N 34°39' E 135°26'0 0.0
2019-Mar-24 14:00N 34°39' E 135°26'0 0.0
2019-Mar-24 13:24N 34°39' E 135°26'0 0.0
2019-Mar-24 13:00N 34°39' E 135°26'0 0.0
2019-Mar-24 12:30N 34°39' E 135°26'0 0.0
2019-Mar-24 11:54N 34°39' E 135°26'0 0.0
2019-Mar-24 11:24N 34°39' E 135°26'0 0.0
2019-Mar-24 11:00N 34°39' E 135°26'0 0.0
2019-Mar-24 10:30N 34°39' E 135°26'0 0.0
2019-Mar-24 10:00N 34°39' E 135°26'0 0.0
2019-Mar-24 09:18N 34°39' E 135°26'0 0.0
2019-Mar-24 08:54N 34°39' E 135°26'0 0.0
2019-Mar-24 08:30N 34°39' E 135°26'0 0.0
2019-Mar-24 08:00N 34°39' E 135°26'0 0.0
2019-Mar-24 07:30N 34°39' E 135°26'0 0.0
2019-Mar-24 07:00N 34°39' E 135°26'0 0.0
2019-Mar-24 06:06N 34°39' E 135°26'0 0.0
2019-Mar-24 05:30N 34°39' E 135°26'0 0.0
2019-Mar-24 05:00N 34°39' E 135°26'0 0.0
2019-Mar-24 04:12N 34°39' E 135°26'0 0.0
2019-Mar-24 03:54N 34°39' E 135°26'0 0.0
2019-Mar-24 03:30N 34°39' E 135°26'0 0.0
2019-Mar-24 02:42N 34°39' E 135°26'0 0.0
2019-Mar-24 02:30N 34°39' E 135°26'0 0.0
2019-Mar-24 02:00N 34°39' E 135°26'0 0.0
2019-Mar-24 01:30N 34°39' E 135°26'0 0.0
2019-Mar-24 01:00N 34°39' E 135°26'0 0.0
2019-Mar-24 00:30N 34°39' E 135°26'0 0.0
2019-Mar-24 00:00N 34°39' E 135°26'0 0.0
2019-Mar-23 23:24N 34°39' E 135°26'0 0.0
2019-Mar-23 23:00N 34°39' E 135°26'0 0.0
2019-Mar-23 22:28N 34°39' E 135°26'0 0.1
2019-Mar-23 22:00N 34°39' E 135°26'3 6.0
2019-Mar-23 21:30N 34°38' E 135°23'611.7
2019-Mar-23 21:00N 34°36' E 135°16'511.0
2019-Mar-23 20:30N 34°35' E 135°09'4 8.4
2019-Mar-23 20:00N 34°35' E 135°04'510.0
2019-Mar-23 19:29N 34°37' E 134°58'610.8
2019-Mar-23 18:58N 34°34' E 134°52'5 9.6
2019-Mar-23 18:30N 34°33' E 134°47'4 8.8
2019-Mar-23 18:00N 34°31' E 134°42'4 8.8
2019-Mar-23 17:30N 34°29' E 134°37'4 8.5
2019-Mar-23 17:00N 34°28' E 134°33'4 8.4
2019-Mar-23 16:30N 34°26' E 134°28'7 8.7
2019-Mar-23 15:42N 34°24' E 134°20'  
2019-Mar-21 05:02N 35°06' E 129°05'0 6.3
2019-Mar-21 05:00N 35°06' E 129°05'2 3.4
2019-Mar-21 04:29N 35°07' E 129°03'0 0.0
2019-Mar-21 03:56N 35°07' E 129°03'0 0.0
2019-Mar-21 03:29N 35°07' E 129°03'0 0.0
2019-Mar-21 02:59N 35°07' E 129°03'0 0.0
2019-Mar-21 02:29N 35°07' E 129°03'0 0.0
2019-Mar-21 01:59N 35°07' E 129°03'0 0.0
2019-Mar-21 01:29N 35°07' E 129°03'0 0.0
2019-Mar-21 00:59N 35°07' E 129°03'0 0.0
2019-Mar-21 00:29N 35°07' E 129°03'0 0.0
2019-Mar-20 23:59N 35°07' E 129°03'0 0.0
2019-Mar-20 23:29N 35°07' E 129°03'0 0.0
2019-Mar-20 22:59N 35°07' E 129°03'0 0.0
2019-Mar-20 22:29N 35°07' E 129°03'0 0.0
2019-Mar-20 21:59N 35°07' E 129°03'0 0.0
2019-Mar-20 21:29N 35°07' E 129°03'0 0.0
2019-Mar-20 20:59N 35°07' E 129°03'0 0.0
2019-Mar-20 20:29N 35°07' E 129°03'0 0.0
2019-Mar-20 19:59N 35°07' E 129°03'0 0.0
2019-Mar-20 19:29N 35°07' E 129°03'0 0.0
2019-Mar-20 18:59N 35°07' E 129°03'0 0.0
2019-Mar-20 18:29N 35°07' E 129°03'0 0.0
2019-Mar-20 17:59N 35°07' E 129°03'0 0.0
2019-Mar-20 17:29N 35°07' E 129°03'0 0.0
2019-Mar-20 16:59N 35°07' E 129°03'0 0.0
2019-Mar-20 16:29N 35°07' E 129°03'0 0.0
2019-Mar-20 15:59N 35°07' E 129°03'0 0.0
2019-Mar-20 15:29N 35°07' E 129°03'0 0.0
2019-Mar-20 14:59N 35°07' E 129°03'0 0.0
2019-Mar-20 14:29N 35°07' E 129°03'0 0.0
2019-Mar-20 13:59N 35°07' E 129°03'0 0.0
2019-Mar-20 13:29N 35°07' E 129°03'0 0.0
2019-Mar-20 12:59N 35°07' E 129°03'0 0.0
2019-Mar-20 12:29N 35°07' E 129°03'0 0.0
2019-Mar-20 11:59N 35°07' E 129°03'0 0.0
2019-Mar-20 11:29N 35°07' E 129°03'0 0.0
2019-Mar-20 10:59N 35°07' E 129°03'0 0.0
2019-Mar-20 10:29N 35°07' E 129°03'0 0.0
2019-Mar-20 09:59N 35°07' E 129°03'0 0.0
2019-Mar-20 09:29N 35°07' E 129°03'0 0.0
2019-Mar-20 08:59N 35°07' E 129°03'0 0.0
2019-Mar-20 08:29N 35°07' E 129°03'0 0.0
2019-Mar-20 07:59N 35°07' E 129°03'0 0.0
2019-Mar-20 07:29N 35°07' E 129°03'0 0.0
2019-Mar-20 06:59N 35°07' E 129°03'0 0.0
2019-Mar-20 06:29N 35°07' E 129°03'0 0.0
2019-Mar-20 05:59N 35°07' E 129°03'0 0.0
2019-Mar-20 05:29N 35°07' E 129°03'0 0.0
2019-Mar-20 04:59N 35°07' E 129°03'0 0.0
2019-Mar-20 04:29N 35°07' E 129°03'0 0.0
2019-Mar-20 03:59N 35°07' E 129°03'0 0.0
2019-Mar-20 03:29N 35°07' E 129°03'0 0.0
2019-Mar-20 02:59N 35°07' E 129°03'0 0.0
2019-Mar-20 02:29N 35°07' E 129°03'0 0.0
2019-Mar-20 01:59N 35°07' E 129°03'0 0.0
2019-Mar-20 01:26N 35°07' E 129°03'0 0.0
2019-Mar-20 00:59N 35°07' E 129°03'0 0.0
2019-Mar-20 00:29N 35°07' E 129°03'0 0.0
2019-Mar-19 23:59N 35°07' E 129°03'0 0.0
2019-Mar-19 23:29N 35°07' E 129°03'0 0.0
2019-Mar-19 22:59N 35°07' E 129°03'0 0.0
2019-Mar-19 22:28N 35°07' E 129°03'0 0.0
2019-Mar-19 21:59N 35°07' E 129°03'0 0.0
2019-Mar-19 21:29N 35°07' E 129°03'0 0.0
2019-Mar-19 20:59N 35°07' E 129°03'0 0.0
2019-Mar-19 20:29N 35°07' E 129°03'0 0.0
2019-Mar-19 20:00N 35°07' E 129°03'1 1.4
2019-Mar-19 19:30N 35°06' E 129°04'  

Dump ship's entire track history